sensor_id;sensor_type;location;lat;lon;timestamp;pressure;altitude;pressure_sealevel;temperature;humidity
17781;BME280;8498;52.516;13.790;2022-08-19T00:05:19;100419.53;;;23.23;98.67
17781;BME280;8498;52.516;13.790;2022-08-19T00:10:42;100429.78;;;23.28;99.49
17781;BME280;8498;52.516;13.790;2022-08-19T00:16:06;100448.56;;;23.29;99.09
17781;BME280;8498;52.516;13.790;2022-08-19T00:21:29;100439.34;;;23.24;99.04
17781;BME280;8498;52.516;13.790;2022-08-19T00:26:52;100432.25;;;23.23;99.03
17781;BME280;8498;52.516;13.790;2022-08-19T00:32:14;100417.97;;;23.14;99.72
17781;BME280;8498;52.516;13.790;2022-08-19T00:37:39;100426.94;;;23.15;100.00
17781;BME280;8498;52.516;13.790;2022-08-19T00:43:10;100423.41;;;23.14;100.00
17781;BME280;8498;52.516;13.790;2022-08-19T00:48:35;100407.13;;;23.14;100.00
17781;BME280;8498;52.516;13.790;2022-08-19T00:53:59;100414.25;;;23.15;100.00
17781;BME280;8498;52.516;13.790;2022-08-19T00:59:23;100415.44;;;23.13;100.00
17781;BME280;8498;52.516;13.790;2022-08-19T01:05:08;100427.03;;;23.06;100.00
17781;BME280;8498;52.516;13.790;2022-08-19T01:10:35;100435.59;;;22.89;100.00
17781;BME280;8498;52.516;13.790;2022-08-19T01:16:02;100437.66;;;22.87;100.00
17781;BME280;8498;52.516;13.790;2022-08-19T01:21:45;100425.53;;;22.83;100.00
17781;BME280;8498;52.516;13.790;2022-08-19T01:27:11;100396.16;;;22.21;100.00
17781;BME280;8498;52.516;13.790;2022-08-19T01:32:33;100414.66;;;21.94;100.00
17781;BME280;8498;52.516;13.790;2022-08-19T01:38:00;100393.69;;;21.96;100.00
17781;BME280;8498;52.516;13.790;2022-08-19T01:43:23;100393.34;;;22.14;100.00
17781;BME280;8498;52.516;13.790;2022-08-19T01:48:46;100387.66;;;22.24;100.00
17781;BME280;8498;52.516;13.790;2022-08-19T01:54:10;100388.97;;;22.28;100.00
17781;BME280;8498;52.516;13.790;2022-08-19T01:59:34;100369.44;;;22.32;100.00
17781;BME280;8498;52.516;13.790;2022-08-19T02:04:58;100342.38;;;22.32;100.00
17781;BME280;8498;52.516;13.790;2022-08-19T02:10:21;100347.72;;;22.26;100.00
17781;BME280;8498;52.516;13.790;2022-08-19T02:15:44;100349.03;;;22.30;100.00
17781;BME280;8498;52.516;13.790;2022-08-19T02:21:07;100325.34;;;22.32;100.00
17781;BME280;8498;52.516;13.790;2022-08-19T02:26:29;100320.94;;;22.31;100.00
17781;BME280;8498;52.516;13.790;2022-08-19T02:31:52;100324.94;;;22.35;100.00
17781;BME280;8498;52.516;13.790;2022-08-19T02:37:15;100314.22;;;22.27;100.00
17781;BME280;8498;52.516;13.790;2022-08-19T02:42:56;100327.47;;;22.22;100.00
17781;BME280;8498;52.516;13.790;2022-08-19T02:48:20;100326.53;;;22.29;100.00
17781;BME280;8498;52.516;13.790;2022-08-19T02:53:43;100328.97;;;22.24;100.00
17781;BME280;8498;52.516;13.790;2022-08-19T02:59:06;100332.97;;;22.14;100.00
17781;BME280;8498;52.516;13.790;2022-08-19T03:04:34;100345.38;;;22.23;100.00
17781;BME280;8498;52.516;13.790;2022-08-19T03:09:56;100334.28;;;22.18;100.00
17781;BME280;8498;52.516;13.790;2022-08-19T03:15:19;100334.41;;;22.10;100.00
17781;BME280;8498;52.516;13.790;2022-08-19T03:20:48;100327.97;;;22.11;100.00
17781;BME280;8498;52.516;13.790;2022-08-19T03:26:11;100318.06;;;22.18;100.00
17781;BME280;8498;52.516;13.790;2022-08-19T03:31:39;100332.50;;;22.25;100.00
17781;BME280;8498;52.516;13.790;2022-08-19T03:37:13;100330.47;;;22.27;100.00
17781;BME280;8498;52.516;13.790;2022-08-19T03:42:36;100340.25;;;22.28;100.00
17781;BME280;8498;52.516;13.790;2022-08-19T03:48:18;100332.78;;;22.30;100.00
17781;BME280;8498;52.516;13.790;2022-08-19T03:53:41;100329.81;;;22.25;100.00
17781;BME280;8498;52.516;13.790;2022-08-19T03:59:05;100332.69;;;22.23;100.00
17781;BME280;8498;52.516;13.790;2022-08-19T04:04:28;100334.78;;;22.21;100.00
17781;BME280;8498;52.516;13.790;2022-08-19T04:09:52;100314.78;;;22.22;100.00
17781;BME280;8498;52.516;13.790;2022-08-19T04:15:15;100308.09;;;22.18;100.00
17781;BME280;8498;52.516;13.790;2022-08-19T04:20:43;100332.88;;;22.22;100.00
17781;BME280;8498;52.516;13.790;2022-08-19T04:26:06;100358.06;;;22.22;100.00
17781;BME280;8498;52.516;13.790;2022-08-19T04:31:34;100350.16;;;22.21;100.00
17781;BME280;8498;52.516;13.790;2022-08-19T04:36:58;100334.66;;;22.15;100.00
17781;BME280;8498;52.516;13.790;2022-08-19T04:42:21;100328.78;;;22.26;100.00
17781;BME280;8498;52.516;13.790;2022-08-19T04:48:02;100310.97;;;22.17;100.00
17781;BME280;8498;52.516;13.790;2022-08-19T04:53:44;100322.25;;;22.20;100.00
17781;BME280;8498;52.516;13.790;2022-08-19T04:59:07;100328.59;;;22.27;100.00
17781;BME280;8498;52.516;13.790;2022-08-19T05:04:30;100315.91;;;22.28;100.00
17781;BME280;8498;52.516;13.790;2022-08-19T05:09:54;100328.59;;;22.27;100.00
17781;BME280;8498;52.516;13.790;2022-08-19T05:15:20;100318.88;;;22.33;100.00
17781;BME280;8498;52.516;13.790;2022-08-19T05:20:42;100308.31;;;22.38;100.00
17781;BME280;8498;52.516;13.790;2022-08-19T05:26:24;100315.50;;;22.46;100.00
17781;BME280;8498;52.516;13.790;2022-08-19T05:31:51;100306.03;;;22.56;100.00
17781;BME280;8498;52.516;13.790;2022-08-19T05:37:14;100302.44;;;22.70;100.00
17781;BME280;8498;52.516;13.790;2022-08-19T05:42:37;100306.38;;;22.83;100.00
17781;BME280;8498;52.516;13.790;2022-08-19T05:47:59;100315.91;;;23.00;100.00
17781;BME280;8498;52.516;13.790;2022-08-19T05:53:22;100325.34;;;23.04;100.00
17781;BME280;8498;52.516;13.790;2022-08-19T05:58:45;100323.47;;;23.04;100.00
17781;BME280;8498;52.516;13.790;2022-08-19T06:04:07;100323.97;;;23.15;100.00
17781;BME280;8498;52.516;13.790;2022-08-19T06:09:30;100342.81;;;23.23;100.00
17781;BME280;8498;52.516;13.790;2022-08-19T06:14:52;100340.75;;;23.25;100.00
17781;BME280;8498;52.516;13.790;2022-08-19T06:20:22;100356.41;;;23.29;100.00
17781;BME280;8498;52.516;13.790;2022-08-19T06:26:05;100347.25;;;23.30;100.00
17781;BME280;8498;52.516;13.790;2022-08-19T06:31:29;100338.97;;;23.38;100.00
17781;BME280;8498;52.516;13.790;2022-08-19T06:36:54;100335.56;;;23.51;100.00
17781;BME280;8498;52.516;13.790;2022-08-19T06:42:17;100338.06;;;23.53;100.00
17781;BME280;8498;52.516;13.790;2022-08-19T06:47:43;100356.69;;;23.56;100.00
17781;BME280;8498;52.516;13.790;2022-08-19T06:53:09;100354.53;;;23.51;100.00
17781;BME280;8498;52.516;13.790;2022-08-19T06:58:33;100351.00;;;23.51;100.00
17781;BME280;8498;52.516;13.790;2022-08-19T07:03:56;100368.44;;;23.48;100.00
17781;BME280;8498;52.516;13.790;2022-08-19T07:09:19;100380.31;;;23.47;100.00
17781;BME280;8498;52.516;13.790;2022-08-19T07:14:42;100385.31;;;23.43;100.00
17781;BME280;8498;52.516;13.790;2022-08-19T07:20:06;100381.56;;;23.45;100.00
17781;BME280;8498;52.516;13.790;2022-08-19T07:25:31;100378.75;;;23.53;100.00
17781;BME280;8498;52.516;13.790;2022-08-19T07:30:54;100381.31;;;23.61;100.00
17781;BME280;8498;52.516;13.790;2022-08-19T07:36:20;100377.69;;;23.75;100.00
17781;BME280;8498;52.516;13.790;2022-08-19T07:41:47;100378.19;;;23.85;100.00
17781;BME280;8498;52.516;13.790;2022-08-19T07:47:10;100383.81;;;23.90;100.00
17781;BME280;8498;52.516;13.790;2022-08-19T07:52:53;100388.59;;;23.88;100.00
17781;BME280;8498;52.516;13.790;2022-08-19T07:58:18;100385.66;;;23.83;100.00
17781;BME280;8498;52.516;13.790;2022-08-19T08:03:42;100387.34;;;23.84;100.00
17781;BME280;8498;52.516;13.790;2022-08-19T08:09:29;100381.53;;;23.87;100.00
17781;BME280;8498;52.516;13.790;2022-08-19T08:17:31;100378.84;;;24.22;100.00
17781;BME280;8498;52.516;13.790;2022-08-19T08:23:10;100393.16;;;23.81;100.00
17781;BME280;8498;52.516;13.790;2022-08-19T08:28:49;100398.09;;;23.71;100.00
17781;BME280;8498;52.516;13.790;2022-08-19T08:34:13;100404.88;;;23.88;100.00
17781;BME280;8498;52.516;13.790;2022-08-19T08:39:36;100422.06;;;23.95;100.00
17781;BME280;8498;52.516;13.790;2022-08-19T08:45:05;100402.47;;;24.00;100.00
17781;BME280;8498;52.516;13.790;2022-08-19T08:50:45;100414.41;;;24.05;100.00
17781;BME280;8498;52.516;13.790;2022-08-19T08:56:11;100423.22;;;24.07;100.00
17781;BME280;8498;52.516;13.790;2022-08-19T09:01:38;100422.56;;;24.05;100.00
17781;BME280;8498;52.516;13.790;2022-08-19T09:13:00;100434.09;;;24.42;100.00
17781;BME280;8498;52.516;13.790;2022-08-19T09:18:49;100440.34;;;24.83;99.71
17781;BME280;8498;52.516;13.790;2022-08-19T09:24:15;100445.75;;;25.24;96.75
17781;BME280;8498;52.516;13.790;2022-08-19T09:29:38;100440.78;;;25.41;92.68
17781;BME280;8498;52.516;13.790;2022-08-19T09:35:02;100431.09;;;25.12;93.15
17781;BME280;8498;52.516;13.790;2022-08-19T09:40:30;100446.22;;;24.87;95.33
17781;BME280;8498;52.516;13.790;2022-08-19T09:46:00;100440.72;;;24.74;95.55
17781;BME280;8498;52.516;13.790;2022-08-19T09:51:25;100435.34;;;24.80;95.22
17781;BME280;8498;52.516;13.790;2022-08-19T09:56:52;100434.38;;;24.95;95.93
17781;BME280;8498;52.516;13.790;2022-08-19T10:02:14;100422.47;;;25.02;94.01
17781;BME280;8498;52.516;13.790;2022-08-19T10:07:43;100423.19;;;25.31;92.38
17781;BME280;8498;52.516;13.790;2022-08-19T10:13:07;100419.47;;;25.84;89.57
17781;BME280;8498;52.516;13.790;2022-08-19T10:18:30;100425.78;;;25.85;89.06
17781;BME280;8498;52.516;13.790;2022-08-19T10:23:58;100408.16;;;25.94;88.65
17781;BME280;8498;52.516;13.790;2022-08-19T10:29:22;100401.44;;;26.10;87.91
17781;BME280;8498;52.516;13.790;2022-08-19T10:34:54;100403.09;;;26.11;85.83
17781;BME280;8498;52.516;13.790;2022-08-19T10:40:18;100398.69;;;26.29;87.33
17781;BME280;8498;52.516;13.790;2022-08-19T10:45:41;100391.78;;;26.07;84.84
17781;BME280;8498;52.516;13.790;2022-08-19T10:51:13;100400.19;;;25.86;85.50
17781;BME280;8498;52.516;13.790;2022-08-19T10:56:55;100393.94;;;25.72;86.23
17781;BME280;8498;52.516;13.790;2022-08-19T11:02:18;100403.13;;;25.58;88.53
17781;BME280;8498;52.516;13.790;2022-08-19T11:07:41;100411.72;;;25.68;88.86
17781;BME280;8498;52.516;13.790;2022-08-19T11:13:04;100408.78;;;25.96;87.03
17781;BME280;8498;52.516;13.790;2022-08-19T11:18:27;100416.50;;;26.19;86.11
17781;BME280;8498;52.516;13.790;2022-08-19T11:23:53;100434.94;;;26.23;86.63
17781;BME280;8498;52.516;13.790;2022-08-19T11:29:17;100421.09;;;26.25;85.06
17781;BME280;8498;52.516;13.790;2022-08-19T11:34:41;100411.03;;;26.45;84.27
17781;BME280;8498;52.516;13.790;2022-08-19T11:40:05;100405.75;;;26.57;84.48
17781;BME280;8498;52.516;13.790;2022-08-19T11:45:28;100407.41;;;26.58;83.44
17781;BME280;8498;52.516;13.790;2022-08-19T11:50:52;100433.34;;;26.74;82.21
17781;BME280;8498;52.516;13.790;2022-08-19T11:56:15;100433.16;;;26.62;81.91
17781;BME280;8498;52.516;13.790;2022-08-19T12:01:37;100443.31;;;26.28;82.98
17781;BME280;8498;52.516;13.790;2022-08-19T12:06:59;100440.81;;;26.07;82.01
17781;BME280;8498;52.516;13.790;2022-08-19T12:12:22;100437.69;;;25.90;83.95
17781;BME280;8498;52.516;13.790;2022-08-19T12:17:47;100454.00;;;25.77;85.38
17781;BME280;8498;52.516;13.790;2022-08-19T12:23:10;100458.81;;;25.75;84.38
17781;BME280;8498;52.516;13.790;2022-08-19T12:28:32;100456.31;;;25.87;83.75
17781;BME280;8498;52.516;13.790;2022-08-19T12:33:55;100457.13;;;26.40;84.76
17781;BME280;8498;52.516;13.790;2022-08-19T12:39:18;100452.28;;;26.55;86.38
17781;BME280;8498;52.516;13.790;2022-08-19T12:44:42;100454.56;;;26.58;85.24
17781;BME280;8498;52.516;13.790;2022-08-19T12:50:06;100449.03;;;26.85;85.00
17781;BME280;8498;52.516;13.790;2022-08-19T12:55:31;100456.78;;;26.81;82.53
17781;BME280;8498;52.516;13.790;2022-08-19T13:00:53;100452.16;;;26.88;81.65
17781;BME280;8498;52.516;13.790;2022-08-19T13:06:16;100447.94;;;27.37;79.64
17781;BME280;8498;52.516;13.790;2022-08-19T13:11:41;100429.72;;;28.12;76.18
17781;BME280;8498;52.516;13.790;2022-08-19T13:17:06;100443.00;;;28.08;74.61
17781;BME280;8498;52.516;13.790;2022-08-19T13:22:28;100449.63;;;27.31;76.35
17781;BME280;8498;52.516;13.790;2022-08-19T13:27:51;100457.34;;;27.03;78.63
17781;BME280;8498;52.516;13.790;2022-08-19T13:33:14;100454.06;;;26.88;79.00
17781;BME280;8498;52.516;13.790;2022-08-19T13:38:37;100456.63;;;26.69;79.52
17781;BME280;8498;52.516;13.790;2022-08-19T13:44:00;100455.34;;;26.72;80.41
17781;BME280;8498;52.516;13.790;2022-08-19T13:49:24;100447.81;;;26.74;79.47
17781;BME280;8498;52.516;13.790;2022-08-19T13:54:46;100455.78;;;26.69;79.50
17781;BME280;8498;52.516;13.790;2022-08-19T14:00:15;100453.25;;;26.74;79.36
17781;BME280;8498;52.516;13.790;2022-08-19T14:05:40;100455.53;;;26.84;79.04
17781;BME280;8498;52.516;13.790;2022-08-19T14:11:02;100440.88;;;26.78;78.99
17781;BME280;8498;52.516;13.790;2022-08-19T14:16:27;100435.22;;;26.73;78.86
17781;BME280;8498;52.516;13.790;2022-08-19T14:21:52;100437.69;;;26.88;78.07
17781;BME280;8498;52.516;13.790;2022-08-19T14:27:15;100442.69;;;26.91;77.85
17781;BME280;8498;52.516;13.790;2022-08-19T14:32:37;100451.78;;;26.78;77.95
17781;BME280;8498;52.516;13.790;2022-08-19T14:38:01;100442.56;;;26.73;79.00
17781;BME280;8498;52.516;13.790;2022-08-19T14:43:24;100443.19;;;26.75;78.46
17781;BME280;8498;52.516;13.790;2022-08-19T14:48:48;100444.50;;;26.65;78.30
17781;BME280;8498;52.516;13.790;2022-08-19T14:54:13;100455.00;;;26.55;79.48
17781;BME280;8498;52.516;13.790;2022-08-19T14:59:36;100472.63;;;26.46;79.16
17781;BME280;8498;52.516;13.790;2022-08-19T15:04:58;100468.66;;;26.36;79.63
17781;BME280;8498;52.516;13.790;2022-08-19T15:10:22;100469.28;;;26.24;79.80
17781;BME280;8498;52.516;13.790;2022-08-19T15:15:47;100481.44;;;26.15;80.12
17781;BME280;8498;52.516;13.790;2022-08-19T15:21:11;100489.81;;;26.07;80.46
17781;BME280;8498;52.516;13.790;2022-08-19T15:26:34;100510.13;;;26.05;80.56
17781;BME280;8498;52.516;13.790;2022-08-19T15:31:58;100510.34;;;25.90;81.20
17781;BME280;8498;52.516;13.790;2022-08-19T15:37:22;100506.16;;;25.74;80.90
17781;BME280;8498;52.516;13.790;2022-08-19T15:42:45;100513.63;;;25.66;82.06
17781;BME280;8498;52.516;13.790;2022-08-19T15:48:08;100513.16;;;25.55;81.93
17781;BME280;8498;52.516;13.790;2022-08-19T15:53:31;100512.31;;;25.48;82.08
17781;BME280;8498;52.516;13.790;2022-08-19T15:58:54;100512.31;;;25.48;81.89
17781;BME280;8498;52.516;13.790;2022-08-19T16:04:35;100518.16;;;25.45;82.08
17781;BME280;8498;52.516;13.790;2022-08-19T16:10:17;100514.00;;;25.43;82.27
17781;BME280;8498;52.516;13.790;2022-08-19T16:15:48;100505.19;;;25.41;81.78
17781;BME280;8498;52.516;13.790;2022-08-19T16:21:12;100493.28;;;25.48;81.55
17781;BME280;8498;52.516;13.790;2022-08-19T16:26:35;100517.56;;;25.50;81.02
17781;BME280;8498;52.516;13.790;2022-08-19T16:31:57;100534.91;;;25.42;81.92
17781;BME280;8498;52.516;13.790;2022-08-19T16:37:20;100542.66;;;25.45;82.61
17781;BME280;8498;52.516;13.790;2022-08-19T16:42:44;100535.22;;;25.87;81.23
17781;BME280;8498;52.516;13.790;2022-08-19T16:48:06;100535.47;;;26.12;79.55
17781;BME280;8498;52.516;13.790;2022-08-19T16:53:32;100519.78;;;25.94;79.15
17781;BME280;8498;52.516;13.790;2022-08-19T16:58:54;100519.53;;;25.63;80.53
17781;BME280;8498;52.516;13.790;2022-08-19T17:04:20;100533.91;;;25.56;81.53
17781;BME280;8498;52.516;13.790;2022-08-19T17:09:43;100538.25;;;25.44;82.03
17781;BME280;8498;52.516;13.790;2022-08-19T17:15:08;100535.06;;;25.28;83.14
17781;BME280;8498;52.516;13.790;2022-08-19T17:20:31;100528.97;;;25.12;83.80
17781;BME280;8498;52.516;13.790;2022-08-19T17:25:54;100520.34;;;25.09;83.94
17781;BME280;8498;52.516;13.790;2022-08-19T17:31:19;100528.00;;;24.92;84.17
17781;BME280;8498;52.516;13.790;2022-08-19T17:36:42;100544.25;;;24.85;84.55
17781;BME280;8498;52.516;13.790;2022-08-19T17:42:05;100551.38;;;24.86;84.82
17781;BME280;8498;52.516;13.790;2022-08-19T17:47:29;100548.81;;;24.78;85.02
17781;BME280;8498;52.516;13.790;2022-08-19T17:52:52;100552.78;;;24.82;85.61
17781;BME280;8498;52.516;13.790;2022-08-19T17:58:14;100562.56;;;24.70;85.87
17781;BME280;8498;52.516;13.790;2022-08-19T18:03:41;100559.97;;;24.62;86.22
17781;BME280;8498;52.516;13.790;2022-08-19T18:09:04;100568.53;;;24.59;86.53
17781;BME280;8498;52.516;13.790;2022-08-19T18:14:31;100571.25;;;24.59;86.79
17781;BME280;8498;52.516;13.790;2022-08-19T18:19:55;100578.13;;;24.55;87.20
17781;BME280;8498;52.516;13.790;2022-08-19T18:25:21;100586.25;;;24.55;87.13
17781;BME280;8498;52.516;13.790;2022-08-19T18:30:45;100578.28;;;24.47;87.66
17781;BME280;8498;52.516;13.790;2022-08-19T18:36:08;100581.97;;;24.39;88.23
17781;BME280;8498;52.516;13.790;2022-08-19T18:41:32;100588.22;;;24.40;88.46
17781;BME280;8498;52.516;13.790;2022-08-19T18:47:13;100613.94;;;24.44;88.95
17781;BME280;8498;52.516;13.790;2022-08-19T18:52:57;100608.66;;;24.36;89.01
17781;BME280;8498;52.516;13.790;2022-08-19T18:58:30;100611.91;;;24.25;89.55
17781;BME280;8498;52.516;13.790;2022-08-19T19:04:04;100621.28;;;24.22;90.19
17781;BME280;8498;52.516;13.790;2022-08-19T19:09:27;100633.47;;;24.11;90.62
17781;BME280;8498;52.516;13.790;2022-08-19T19:14:50;100642.06;;;24.15;90.29
17781;BME280;8498;52.516;13.790;2022-08-19T19:20:13;100643.78;;;24.01;90.08
17781;BME280;8498;52.516;13.790;2022-08-19T19:25:37;100646.25;;;23.96;89.77
17781;BME280;8498;52.516;13.790;2022-08-19T19:31:15;100647.19;;;23.89;90.13
17781;BME280;8498;52.516;13.790;2022-08-19T19:36:38;100673.00;;;23.99;90.04
17781;BME280;8498;52.516;13.790;2022-08-19T19:42:06;100671.22;;;24.06;89.42
17781;BME280;8498;52.516;13.790;2022-08-19T19:47:35;100666.81;;;24.05;89.73
17781;BME280;8498;52.516;13.790;2022-08-19T19:52:59;100681.41;;;24.04;90.79
17781;BME280;8498;52.516;13.790;2022-08-19T19:58:27;100692.38;;;23.96;92.37
17781;BME280;8498;52.516;13.790;2022-08-19T20:03:51;100684.34;;;23.88;93.65
17781;BME280;8498;52.516;13.790;2022-08-19T20:09:15;100687.91;;;23.89;93.45
17781;BME280;8498;52.516;13.790;2022-08-19T20:14:40;100685.41;;;23.87;93.65
17781;BME280;8498;52.516;13.790;2022-08-19T20:20:03;100693.00;;;23.77;94.07
17781;BME280;8498;52.516;13.790;2022-08-19T20:25:26;100696.44;;;23.71;94.89
17781;BME280;8498;52.516;13.790;2022-08-19T20:30:49;100690.09;;;23.64;94.88
17781;BME280;8498;52.516;13.790;2022-08-19T20:36:12;100680.84;;;23.58;95.35
17781;BME280;8498;52.516;13.790;2022-08-19T20:41:36;100673.94;;;23.56;95.70
17781;BME280;8498;52.516;13.790;2022-08-19T20:46:58;100673.72;;;23.57;95.90
17781;BME280;8498;52.516;13.790;2022-08-19T20:52:25;100673.16;;;23.47;96.67
17781;BME280;8498;52.516;13.790;2022-08-19T20:57:47;100678.78;;;23.46;97.02
17781;BME280;8498;52.516;13.790;2022-08-19T21:03:15;100665.41;;;23.44;96.82
17781;BME280;8498;52.516;13.790;2022-08-19T21:08:38;100669.44;;;23.33;97.58
17781;BME280;8498;52.516;13.790;2022-08-19T21:14:01;100672.50;;;23.30;97.93
17781;BME280;8498;52.516;13.790;2022-08-19T21:19:24;100671.03;;;23.42;98.25
17781;BME280;8498;52.516;13.790;2022-08-19T21:24:46;100665.97;;;23.39;97.60
17781;BME280;8498;52.516;13.790;2022-08-19T21:30:10;100668.41;;;23.34;97.94
17781;BME280;8498;52.516;13.790;2022-08-19T21:35:32;100688.22;;;23.35;98.08
17781;BME280;8498;52.516;13.790;2022-08-19T21:40:55;100708.97;;;23.42;97.71
17781;BME280;8498;52.516;13.790;2022-08-19T21:46:18;100680.09;;;23.35;98.09
17781;BME280;8498;52.516;13.790;2022-08-19T21:51:40;100674.03;;;23.33;98.52
17781;BME280;8498;52.516;13.790;2022-08-19T21:57:02;100663.28;;;23.25;98.73
17781;BME280;8498;52.516;13.790;2022-08-19T22:02:31;100665.41;;;23.29;98.75
17781;BME280;8498;52.516;13.790;2022-08-19T22:07:55;100657.09;;;23.31;98.12
17781;BME280;8498;52.516;13.790;2022-08-19T22:13:20;100662.34;;;23.32;98.25
17781;BME280;8498;52.516;13.790;2022-08-19T22:18:43;100663.81;;;23.20;98.15
17781;BME280;8498;52.516;13.790;2022-08-19T22:24:05;100665.78;;;23.26;98.20
17781;BME280;8498;52.516;13.790;2022-08-19T22:29:28;100659.50;;;23.26;98.16
17781;BME280;8498;52.516;13.790;2022-08-19T22:34:58;100660.75;;;23.23;97.65
17781;BME280;8498;52.516;13.790;2022-08-19T22:40:21;100684.56;;;23.28;98.01
17781;BME280;8498;52.516;13.790;2022-08-19T22:45:45;100682.50;;;23.30;98.02
17781;BME280;8498;52.516;13.790;2022-08-19T22:51:07;100672.03;;;23.27;98.11
17781;BME280;8498;52.516;13.790;2022-08-19T22:56:50;100661.38;;;23.11;98.44
17781;BME280;8498;52.516;13.790;2022-08-19T23:02:26;100656.91;;;23.03;99.12
17781;BME280;8498;52.516;13.790;2022-08-19T23:07:49;100659.81;;;23.01;99.61
17781;BME280;8498;52.516;13.790;2022-08-19T23:13:17;100672.41;;;23.09;99.56
17781;BME280;8498;52.516;13.790;2022-08-19T23:18:40;100668.69;;;23.10;98.91
17781;BME280;8498;52.516;13.790;2022-08-19T23:24:03;100678.97;;;23.15;98.97
17781;BME280;8498;52.516;13.790;2022-08-19T23:29:26;100674.00;;;23.03;99.17
17781;BME280;8498;52.516;13.790;2022-08-19T23:35:09;100679.63;;;23.02;99.68
17781;BME280;8498;52.516;13.790;2022-08-19T23:40:31;100667.44;;;22.98;100.00
17781;BME280;8498;52.516;13.790;2022-08-19T23:45:58;100667.19;;;22.93;100.00
17781;BME280;8498;52.516;13.790;2022-08-19T23:51:22;100667.81;;;22.95;100.00
17781;BME280;8498;52.516;13.790;2022-08-19T23:56:44;100672.03;;;22.97;100.00
